createdAt,value
2022-10-18T00:00:14.212Z,65.80
2022-10-18T00:02:40.816Z,81.20
2022-10-18T00:05:07.599Z,68.50
2022-10-18T00:07:34.240Z,81.83
2022-10-18T00:10:00.797Z,73.67
2022-10-18T00:12:27.509Z,60.90
2022-10-18T00:14:54.043Z,89.97
2022-10-18T00:17:20.631Z,70.57
2022-10-18T00:19:48.178Z,83.80
2022-10-18T00:22:14.699Z,82.50
2022-10-18T00:24:41.218Z,79.10
2022-10-18T00:27:07.873Z,84.30
2022-10-18T00:29:34.675Z,101.57
2022-10-18T00:32:01.246Z,82.90
2022-10-18T00:34:27.841Z,74.17
2022-10-18T00:36:55.106Z,87.07
2022-10-18T00:39:22.383Z,95.00
2022-10-18T00:41:49.696Z,68.13
2022-10-18T00:44:16.230Z,89.73
2022-10-18T00:46:44.081Z,140.37
2022-10-18T00:49:12.956Z,111.43
2022-10-18T00:51:44.982Z,96.60
2022-10-18T00:54:12.349Z,132.40
2022-10-18T00:56:39.419Z,105.57
2022-10-18T00:59:06.354Z,107.27
2022-10-18T01:01:32.927Z,116.57
2022-10-18T01:03:59.621Z,109.43
2022-10-18T01:06:28.233Z,135.20
2022-10-18T01:09:00.927Z,167.50
2022-10-18T01:11:33.253Z,120.23
2022-10-18T01:13:59.739Z,156.70
2022-10-18T01:16:29.224Z,146.33
2022-10-18T01:19:14.591Z,117.13
2022-10-18T01:21:44.119Z,135.47
2022-10-18T01:24:26.031Z,142.60
2022-10-18T01:26:58.685Z,116.53
2022-10-18T01:29:37.078Z,138.47
2022-10-18T01:32:04.899Z,134.77
2022-10-18T01:34:33.618Z,165.00
2022-10-18T01:37:01.191Z,178.33
2022-10-18T01:39:33.042Z,142.17
2022-10-18T01:42:01.076Z,147.37
2022-10-18T01:44:29.070Z,152.63
2022-10-18T01:46:57.020Z,148.00
2022-10-18T01:49:24.408Z,171.23
2022-10-18T01:51:50.926Z,142.80
2022-10-18T01:54:19.184Z,230.80
2022-10-18T01:57:03.481Z,306.77
2022-10-18T01:59:36.717Z,195.43
2022-10-18T02:02:29.934Z,177.53
2022-10-18T02:05:02.868Z,205.10
2022-10-18T02:07:43.676Z,206.30
2022-10-18T02:10:12.129Z,254.13
2022-10-18T02:12:41.588Z,209.90
2022-10-18T02:15:10.034Z,256.47
2022-10-18T02:17:37.735Z,215.73
2022-10-18T02:20:05.555Z,272.43
2022-10-18T02:22:33.574Z,306.60
2022-10-18T02:25:02.734Z,235.50
2022-10-18T02:27:29.423Z,295.17
2022-10-18T02:29:56.136Z,349.00
2022-10-18T02:32:32.014Z,246.83
2022-10-18T02:35:01.314Z,358.67
2022-10-18T02:37:30.682Z,432.33
2022-10-18T02:39:57.448Z,476.30
2022-10-18T02:42:24.022Z,382.63
2022-10-18T02:44:50.588Z,445.23
2022-10-18T02:47:17.205Z,345.67
2022-10-18T02:49:43.744Z,474.93
2022-10-18T02:52:10.265Z,483.27
2022-10-18T02:54:36.859Z,409.37
2022-10-18T02:57:03.994Z,382.47
2022-10-18T02:59:30.641Z,285.27
2022-10-18T03:01:57.274Z,330.60
2022-10-18T03:04:24.058Z,326.97
2022-10-18T03:06:50.716Z,319.67
2022-10-18T03:09:17.390Z,363.30
2022-10-18T03:11:44.051Z,385.60
2022-10-18T03:14:10.823Z,359.77
2022-10-18T03:16:37.490Z,366.77
2022-10-18T03:19:04.094Z,229.93
2022-10-18T03:21:30.660Z,419.40
2022-10-18T03:23:58.772Z,272.93
2022-10-18T03:26:25.686Z,200.90
2022-10-18T03:28:52.319Z,496.10
2022-10-18T03:31:18.940Z,581.60
2022-10-18T03:33:45.882Z,618.33
2022-10-18T03:36:12.448Z,563.33
2022-10-18T03:38:39.045Z,627.73
2022-10-18T03:41:06.253Z,714.70
2022-10-18T03:43:32.805Z,334.20
2022-10-18T03:46:00.233Z,379.27
2022-10-18T03:48:26.811Z,375.27
2022-10-18T03:50:53.392Z,283.20
2022-10-18T03:53:19.958Z,264.27
2022-10-18T03:55:50.436Z,210.67
2022-10-18T03:58:16.966Z,182.67
2022-10-18T04:00:43.532Z,174.97
2022-10-18T04:03:10.130Z,189.00
2022-10-18T04:05:36.911Z,272.13
2022-10-18T04:08:03.688Z,205.57
2022-10-18T04:10:30.356Z,297.13
2022-10-18T04:12:56.900Z,157.83
2022-10-18T04:15:23.469Z,270.50
2022-10-18T04:17:50.038Z,185.60
2022-10-18T04:20:16.769Z,206.93
2022-10-18T04:22:43.359Z,358.77
2022-10-18T04:25:09.926Z,331.10
2022-10-18T04:27:37.371Z,286.00
2022-10-18T04:30:04.217Z,244.33
2022-10-18T04:32:30.853Z,239.17
2022-10-18T04:34:57.496Z,290.80
2022-10-18T04:37:24.158Z,226.97
2022-10-18T04:39:53.483Z,340.93
2022-10-18T04:42:21.001Z,489.00
2022-10-18T04:44:47.708Z,168.47
2022-10-18T04:47:14.395Z,215.03
2022-10-18T04:49:40.973Z,326.63
2022-10-18T04:52:07.591Z,322.23
2022-10-18T04:54:34.180Z,265.47
2022-10-18T04:57:00.789Z,246.20
2022-10-18T04:59:27.395Z,221.73
2022-10-18T05:01:54.067Z,259.73
2022-10-18T05:04:20.726Z,229.50
2022-10-18T05:06:47.432Z,232.63
2022-10-18T05:09:14.078Z,212.73
2022-10-18T05:11:40.661Z,231.50
2022-10-18T05:14:10.145Z,170.93
2022-10-18T05:16:36.766Z,173.70
2022-10-18T05:19:04.593Z,297.07
2022-10-18T05:21:31.303Z,262.27
2022-10-18T05:23:57.952Z,314.90
2022-10-18T05:26:24.541Z,270.67
2022-10-18T05:28:51.338Z,277.37
2022-10-18T05:31:18.023Z,237.37
2022-10-18T05:33:44.635Z,372.33
2022-10-18T05:36:11.371Z,365.50
2022-10-18T05:38:38.852Z,374.70
2022-10-18T05:41:05.666Z,376.80
2022-10-18T05:43:32.280Z,481.83
2022-10-18T05:45:58.927Z,433.23
2022-10-18T05:48:25.571Z,453.37
2022-10-18T05:50:52.180Z,526.27
2022-10-18T05:53:35.598Z,564.67
2022-10-18T05:56:03.407Z,486.27
2022-10-18T05:58:30.040Z,492.87
2022-10-18T06:01:03.294Z,503.70
2022-10-18T06:03:30.877Z,506.40
2022-10-18T06:06:01.856Z,432.63
2022-10-18T06:08:28.499Z,380.03
2022-10-18T06:10:55.138Z,401.37
2022-10-18T06:13:21.765Z,469.77
2022-10-18T06:15:48.332Z,470.90
2022-10-18T06:18:15.191Z,567.27
2022-10-18T06:20:41.797Z,533.37
2022-10-18T06:23:08.383Z,557.50
2022-10-18T06:25:35.034Z,484.17
2022-10-18T06:28:03.575Z,534.50
2022-10-18T06:30:30.460Z,513.13
2022-10-18T06:32:59.863Z,603.00
2022-10-18T06:35:26.412Z,513.73
2022-10-18T06:37:53.319Z,547.10
2022-10-18T06:40:20.029Z,576.50
2022-10-18T06:42:55.284Z,651.80
2022-10-18T06:45:27.321Z,518.43
2022-10-18T06:47:53.908Z,566.30
2022-10-18T06:50:20.493Z,575.07
2022-10-18T06:52:48.876Z,495.33
2022-10-18T06:55:15.429Z,635.17
2022-10-18T06:57:41.949Z,519.13
2022-10-18T07:00:08.892Z,541.03
2022-10-18T07:02:35.583Z,607.60
2022-10-18T07:05:02.151Z,520.83
2022-10-18T07:07:31.168Z,503.33
2022-10-18T07:09:57.923Z,571.20
2022-10-18T07:12:24.569Z,495.37
2022-10-18T07:14:51.183Z,674.53
2022-10-18T07:17:17.711Z,536.90
2022-10-18T07:19:44.290Z,506.40
2022-10-18T07:22:10.818Z,620.37
2022-10-18T07:24:37.414Z,494.47
2022-10-18T07:27:03.984Z,567.07
2022-10-18T07:29:30.669Z,645.23
2022-10-18T07:31:57.425Z,745.90
2022-10-18T07:34:24.039Z,693.97
2022-10-18T07:36:50.653Z,547.40
2022-10-18T07:39:17.279Z,564.23
2022-10-18T07:41:43.882Z,512.23
2022-10-18T07:44:10.926Z,602.30
2022-10-18T07:46:37.518Z,690.17
2022-10-18T07:49:04.191Z,656.97
2022-10-18T07:51:34.722Z,620.20
2022-10-18T07:54:01.352Z,657.63
2022-10-18T07:56:27.945Z,773.67
2022-10-18T07:58:55.970Z,700.43
2022-10-18T08:01:23.801Z,637.40
2022-10-18T08:03:50.691Z,749.37
2022-10-18T08:06:18.516Z,665.97
2022-10-18T08:08:45.372Z,708.23
2022-10-18T08:11:14.930Z,724.27
2022-10-18T08:13:42.015Z,750.63
2022-10-18T08:16:13.033Z,788.77
2022-10-18T08:18:40.027Z,571.60
2022-10-18T08:21:08.752Z,586.90
2022-10-18T08:23:35.751Z,690.33
2022-10-18T08:26:03.437Z,499.40
2022-10-18T08:28:30.090Z,481.40
2022-10-18T08:30:56.704Z,484.93
2022-10-18T08:33:23.700Z,558.67
2022-10-18T08:35:57.658Z,552.73
2022-10-18T08:38:24.301Z,522.43
2022-10-18T08:40:50.899Z,493.80
2022-10-18T08:46:02.813Z,427.90
2022-10-18T08:48:37.179Z,367.27
2022-10-18T08:51:04.919Z,262.40
2022-10-18T08:53:49.109Z,294.10
2022-10-18T08:56:18.858Z,236.57
2022-10-18T08:58:45.450Z,290.80
2022-10-18T09:01:21.124Z,276.60
2022-10-18T09:03:47.723Z,369.20
2022-10-18T09:06:25.530Z,272.57
2022-10-18T09:09:02.952Z,242.47
2022-10-18T09:11:29.487Z,240.33
2022-10-18T09:14:02.100Z,276.73
2022-10-18T09:16:36.872Z,253.13
2022-10-18T09:19:13.888Z,218.13
2022-10-18T09:21:43.525Z,214.93
2022-10-18T09:24:14.883Z,168.57
2022-10-18T09:26:54.327Z,194.70
2022-10-18T09:29:20.858Z,211.20
2022-10-18T09:31:56.865Z,204.10
2022-10-18T09:34:31.167Z,157.50
2022-10-18T09:36:57.906Z,180.87
2022-10-18T09:39:35.302Z,207.30
2022-10-18T09:42:05.554Z,173.93
2022-10-18T09:44:37.974Z,177.07
2022-10-18T09:47:16.875Z,171.63
2022-10-18T09:49:45.719Z,171.40
2022-10-18T09:52:25.473Z,154.53
2022-10-18T09:55:01.208Z,192.13
2022-10-18T09:57:27.707Z,161.93
2022-10-18T09:59:54.270Z,160.73
2022-10-18T10:02:22.837Z,152.17
2022-10-18T10:04:50.197Z,155.73
2022-10-18T10:07:21.384Z,161.17
2022-10-18T10:09:49.450Z,149.67
2022-10-18T10:12:29.750Z,187.97
2022-10-18T10:15:06.456Z,132.30
2022-10-18T10:17:33.678Z,125.50
2022-10-18T10:20:03.529Z,156.47
2022-10-18T10:22:38.025Z,149.03
2022-10-18T10:25:05.536Z,168.40
2022-10-18T10:27:43.517Z,207.83
2022-10-18T10:30:25.556Z,190.57
2022-10-18T10:32:53.348Z,187.50
2022-10-18T10:35:52.710Z,172.27
2022-10-18T10:38:23.757Z,171.63
2022-10-18T10:40:50.386Z,152.20
2022-10-18T10:43:42.803Z,149.77
2022-10-18T10:46:09.386Z,139.63
2022-10-18T10:49:09.518Z,147.90
2022-10-18T10:51:43.533Z,132.37
2022-10-18T10:54:15.864Z,124.37
2022-10-18T10:57:00.823Z,103.70
2022-10-18T10:59:30.291Z,105.23
2022-10-18T11:02:17.640Z,126.00
2022-10-18T11:04:44.925Z,108.20
2022-10-18T11:07:14.451Z,107.87
2022-10-18T11:09:53.441Z,97.93
2022-10-18T11:12:25.933Z,95.63
2022-10-18T11:15:12.029Z,105.07
2022-10-18T11:17:57.163Z,105.77
2022-10-18T11:20:27.632Z,82.57
2022-10-18T11:23:06.426Z,95.17
2022-10-18T11:25:51.196Z,100.00
2022-10-18T11:28:28.551Z,82.67
2022-10-18T11:31:07.360Z,69.70
2022-10-18T11:34:07.764Z,94.97
2022-10-18T11:36:49.325Z,87.23
2022-10-18T11:39:22.914Z,94.20
2022-10-18T11:41:49.386Z,92.90
2022-10-18T11:44:37.528Z,102.97
2022-10-18T11:47:22.922Z,79.57
2022-10-18T11:50:12.187Z,81.00
2022-10-18T11:52:47.084Z,72.37
2022-10-18T11:55:13.553Z,86.70
2022-10-18T11:57:59.004Z,71.63
2022-10-18T12:00:40.430Z,67.03
2022-10-18T12:03:30.367Z,100.10
2022-10-18T12:05:58.023Z,88.40
2022-10-18T12:08:24.568Z,85.43
2022-10-18T12:11:07.960Z,82.30
2022-10-18T12:13:35.114Z,75.30
2022-10-18T12:16:06.445Z,75.97
2022-10-18T12:18:33.719Z,93.93
2022-10-18T12:21:00.856Z,77.70
2022-10-18T12:23:38.065Z,86.53
2022-10-18T12:26:05.904Z,81.43
2022-10-18T12:28:32.547Z,72.47
2022-10-18T12:31:18.277Z,67.10
2022-10-18T12:33:47.477Z,66.53
2022-10-18T12:36:22.802Z,53.27
2022-10-18T12:39:09.737Z,54.57
2022-10-18T12:41:37.011Z,49.63
2022-10-18T12:44:03.611Z,59.13
2022-10-18T12:46:44.526Z,64.87
2022-10-18T12:49:12.700Z,55.40
2022-10-18T12:51:52.597Z,58.80
2022-10-18T12:54:25.263Z,56.73
2022-10-18T12:56:51.864Z,59.13
2022-10-18T12:59:18.749Z,56.73
2022-10-18T13:01:51.564Z,49.00
2022-10-18T13:04:27.526Z,41.00
2022-10-18T13:06:57.160Z,49.47
2022-10-18T13:09:24.983Z,43.33
2022-10-18T13:11:53.542Z,44.83
2022-10-18T13:14:26.283Z,43.13
2022-10-18T13:17:25.539Z,37.30
2022-10-18T13:20:20.529Z,36.63
2022-10-18T13:22:56.095Z,43.73
2022-10-18T13:25:29.341Z,38.70
2022-10-18T13:28:15.782Z,39.13
2022-10-18T13:31:02.397Z,44.20
2022-10-18T13:33:31.650Z,43.90
2022-10-18T13:36:01.137Z,38.03
2022-10-18T13:38:30.703Z,48.13
2022-10-18T13:41:04.868Z,47.90
2022-10-18T13:43:52.454Z,46.70
2022-10-18T13:46:19.237Z,50.47
2022-10-18T13:48:53.251Z,44.17
2022-10-18T13:51:19.697Z,41.67
2022-10-18T13:53:55.083Z,42.70
2022-10-18T13:56:33.179Z,40.37
2022-10-18T13:59:25.180Z,41.07
2022-10-18T14:02:01.116Z,51.70
2022-10-18T14:04:30.851Z,46.03
2022-10-18T14:07:02.182Z,55.23
2022-10-18T14:09:43.542Z,55.40
2022-10-18T14:12:23.152Z,50.60
2022-10-18T14:15:05.628Z,55.50
2022-10-18T14:17:36.176Z,57.67
2022-10-18T14:20:11.948Z,52.93
2022-10-18T14:22:42.800Z,74.47
2022-10-18T14:25:41.776Z,70.00
2022-10-18T14:28:12.220Z,84.07
2022-10-18T14:30:58.051Z,80.47
2022-10-18T14:33:38.169Z,80.77
2022-10-18T14:36:10.248Z,79.00
2022-10-18T14:38:58.495Z,75.87
2022-10-18T14:41:29.663Z,77.53
2022-10-18T14:44:14.581Z,84.07
2022-10-18T14:46:45.996Z,84.17
2022-10-18T14:49:13.509Z,78.83
2022-10-18T14:51:41.815Z,78.83
2022-10-18T14:56:45.665Z,64.47
2022-10-18T14:59:15.965Z,66.47
2022-10-18T15:01:50.921Z,57.13
2022-10-18T15:04:17.511Z,66.40
2022-10-18T15:06:44.638Z,62.07
2022-10-18T15:09:12.615Z,67.33
2022-10-18T15:11:41.214Z,39.80
2022-10-18T15:14:13.374Z,57.23
2022-10-18T15:16:40.907Z,60.43
2022-10-18T15:19:13.571Z,45.90
2022-10-18T15:21:49.686Z,50.07
2022-10-18T15:24:36.044Z,53.60
2022-10-18T15:27:10.889Z,56.23
2022-10-18T15:29:37.868Z,66.27
2022-10-18T15:32:07.006Z,59.37
2022-10-18T15:34:33.791Z,55.87
2022-10-18T15:37:14.796Z,54.50
2022-10-18T15:39:41.737Z,52.10
2022-10-18T15:42:29.000Z,47.53
2022-10-18T15:44:55.778Z,50.20
2022-10-18T15:47:24.223Z,42.03
2022-10-18T15:49:56.323Z,51.63
2022-10-18T15:52:31.536Z,39.90
2022-10-18T15:55:00.914Z,47.17
2022-10-18T15:57:31.283Z,25.90
2022-10-18T16:00:01.867Z,37.63
2022-10-18T16:02:48.741Z,40.63
2022-10-18T16:05:20.672Z,38.90
2022-10-18T16:07:53.354Z,32.03
2022-10-18T16:10:20.500Z,30.50
2022-10-18T16:12:47.247Z,40.27
2022-10-18T16:15:14.080Z,51.93
2022-10-18T16:17:40.667Z,40.30
2022-10-18T16:20:15.556Z,50.77
2022-10-18T16:22:42.592Z,47.70
2022-10-18T16:25:09.449Z,34.97
2022-10-18T16:27:36.200Z,47.23
2022-10-18T16:30:06.079Z,37.07
2022-10-18T16:32:35.306Z,49.47
2022-10-18T16:35:02.151Z,48.80
2022-10-18T16:37:28.948Z,52.17
2022-10-18T16:39:55.644Z,53.70
2022-10-18T16:42:22.184Z,56.50
2022-10-18T16:44:49.166Z,62.17
2022-10-18T16:47:16.567Z,46.90
2022-10-18T16:49:45.087Z,62.10
2022-10-18T16:52:11.687Z,55.53
2022-10-18T16:54:38.255Z,54.83
2022-10-18T16:57:04.864Z,69.60
2022-10-18T16:59:31.736Z,65.57
2022-10-18T17:01:58.317Z,75.37
2022-10-18T17:04:24.940Z,67.50
2022-10-18T17:06:52.597Z,70.70
2022-10-18T17:09:19.127Z,83.80
2022-10-18T17:11:45.755Z,69.03
2022-10-18T17:14:12.424Z,97.87
2022-10-18T17:16:39.363Z,71.37
2022-10-18T17:19:07.341Z,74.20
2022-10-18T17:21:33.961Z,74.23
2022-10-18T17:24:05.815Z,79.63
2022-10-18T17:26:33.008Z,77.47
2022-10-18T17:29:01.041Z,81.70
2022-10-18T17:31:28.329Z,70.17
2022-10-18T17:33:55.381Z,125.40
2022-10-18T17:36:22.381Z,92.63
2022-10-18T17:38:52.753Z,95.83
2022-10-18T17:41:19.469Z,99.60
2022-10-18T17:43:46.027Z,89.90
2022-10-18T17:46:14.197Z,90.90
2022-10-18T17:48:41.360Z,104.67
2022-10-18T17:51:08.647Z,85.77
2022-10-18T17:53:35.245Z,100.23
2022-10-18T17:56:02.940Z,97.43
2022-10-18T17:58:29.827Z,94.07
2022-10-18T18:00:56.543Z,75.90
2022-10-18T18:03:23.156Z,86.10
2022-10-18T18:05:49.865Z,73.20
2022-10-18T18:08:16.381Z,92.63
2022-10-18T18:10:43.012Z,97.70
2022-10-18T18:13:09.627Z,98.47
2022-10-18T18:15:36.127Z,103.00
2022-10-18T18:18:02.949Z,134.00
2022-10-18T18:20:29.441Z,116.07
2022-10-18T18:22:56.184Z,118.80
2022-10-18T18:25:22.764Z,126.73
2022-10-18T18:27:49.371Z,125.80
2022-10-18T18:30:17.789Z,110.27
2022-10-18T18:32:44.571Z,118.00
2022-10-18T18:35:11.123Z,117.77
2022-10-18T18:37:37.745Z,121.93
2022-10-18T18:40:04.471Z,102.40
2022-10-18T18:42:32.351Z,109.30
2022-10-18T18:45:02.245Z,144.10
2022-10-18T18:47:28.819Z,130.83
2022-10-18T18:49:55.411Z,146.20
2022-10-18T18:52:21.960Z,126.50
2022-10-18T18:54:48.521Z,148.17
2022-10-18T18:57:15.072Z,122.53
2022-10-18T18:59:41.774Z,147.07
2022-10-18T19:02:09.274Z,117.47
2022-10-18T19:04:36.349Z,96.23
2022-10-18T19:07:03.070Z,84.30
2022-10-18T19:09:29.791Z,83.80
2022-10-18T19:11:56.513Z,85.03
2022-10-18T19:14:25.135Z,81.57
2022-10-18T19:16:53.478Z,70.23
2022-10-18T19:19:21.060Z,100.23
2022-10-18T19:21:49.209Z,56.10
2022-10-18T19:24:15.814Z,69.07
2022-10-18T19:26:45.309Z,73.27
2022-10-18T19:29:14.574Z,66.63
2022-10-18T19:31:42.159Z,65.40
2022-10-18T19:34:10.737Z,49.13
2022-10-18T19:36:38.179Z,59.93
2022-10-18T19:39:05.696Z,59.00
2022-10-18T19:41:32.309Z,51.03
2022-10-18T19:43:59.051Z,60.43
2022-10-18T19:46:25.862Z,78.87
2022-10-18T19:48:54.177Z,55.60
2022-10-18T19:51:22.962Z,56.87
2022-10-18T19:53:51.850Z,54.53
2022-10-18T19:56:19.709Z,47.03
2022-10-18T19:58:46.350Z,65.43
2022-10-18T20:01:13.423Z,66.63
2022-10-18T20:03:40.745Z,64.90
2022-10-18T20:06:07.387Z,44.43
2022-10-18T20:08:34.880Z,46.20
2022-10-18T20:11:02.368Z,49.43
2022-10-18T20:13:29.132Z,57.67
2022-10-18T20:15:55.818Z,56.80
2022-10-18T20:18:22.341Z,49.20
2022-10-18T20:20:49.496Z,50.30
2022-10-18T20:23:16.969Z,51.23
2022-10-18T20:25:43.992Z,45.30
2022-10-18T20:28:10.463Z,42.33
2022-10-18T20:30:36.952Z,54.40
2022-10-18T20:33:03.429Z,56.27
2022-10-18T20:35:30.081Z,61.90
2022-10-18T20:37:56.639Z,45.03
2022-10-18T20:40:23.115Z,48.70
2022-10-18T20:42:51.064Z,51.77
2022-10-18T20:45:17.622Z,39.30
2022-10-18T20:47:44.145Z,44.43
2022-10-18T20:50:10.715Z,46.47
2022-10-18T20:52:37.469Z,38.40
2022-10-18T20:55:04.207Z,39.27
2022-10-18T20:57:34.184Z,34.40
2022-10-18T21:00:03.095Z,58.23
2022-10-18T21:02:29.679Z,42.93
2022-10-18T21:04:56.270Z,33.73
2022-10-18T21:07:22.861Z,44.97
2022-10-18T21:09:49.418Z,34.90
2022-10-18T21:12:16.017Z,35.93
2022-10-18T21:14:42.474Z,37.97
2022-10-18T21:17:09.052Z,31.87
2022-10-18T21:19:35.768Z,34.53
2022-10-18T21:22:02.470Z,32.60
2022-10-18T21:24:30.125Z,35.87
2022-10-18T21:26:56.868Z,30.53
2022-10-18T21:29:27.065Z,46.17
2022-10-18T21:31:55.333Z,27.80
2022-10-18T21:34:22.146Z,31.43
2022-10-18T21:36:49.062Z,30.53
2022-10-18T21:39:16.871Z,27.03
2022-10-18T21:41:44.163Z,33.40
2022-10-18T21:44:11.356Z,37.03
2022-10-18T21:46:39.226Z,39.73
2022-10-18T21:49:06.304Z,39.13
2022-10-18T21:51:32.925Z,30.70
2022-10-18T21:53:59.557Z,38.20
2022-10-18T21:56:31.298Z,40.50
2022-10-18T21:58:58.089Z,44.07
2022-10-18T22:01:29.046Z,26.13
2022-10-18T22:03:56.316Z,31.83
2022-10-18T22:06:23.231Z,26.53
2022-10-18T22:08:53.895Z,51.47
2022-10-18T22:11:21.854Z,32.93
2022-10-18T22:13:48.748Z,32.83
2022-10-18T22:16:16.584Z,28.00
2022-10-18T22:18:43.994Z,29.67
2022-10-18T22:21:11.445Z,32.40
2022-10-18T22:23:48.409Z,32.47
2022-10-18T22:26:18.370Z,22.70
2022-10-18T22:28:45.251Z,26.30
2022-10-18T22:31:16.520Z,23.93
2022-10-18T22:33:43.254Z,31.13
2022-10-18T22:36:09.909Z,31.97
2022-10-18T22:38:36.721Z,31.47
2022-10-18T22:41:09.903Z,41.47
2022-10-18T22:43:36.850Z,32.93
2022-10-18T22:46:04.193Z,53.70
2022-10-18T22:48:30.705Z,51.30
2022-10-18T22:50:57.567Z,38.93
2022-10-18T22:53:24.089Z,38.43
2022-10-18T22:55:51.131Z,38.93
2022-10-18T22:58:18.285Z,38.00
2022-10-18T23:00:44.810Z,39.87
2022-10-18T23:03:11.502Z,38.73
2022-10-18T23:05:39.244Z,46.20
2022-10-18T23:08:06.555Z,36.80
2022-10-18T23:10:33.356Z,39.63
2022-10-18T23:12:59.924Z,43.47
2022-10-18T23:15:26.532Z,30.80
2022-10-18T23:17:54.642Z,27.93
2022-10-18T23:20:21.825Z,28.03
2022-10-18T23:22:48.334Z,22.90
2022-10-18T23:25:15.165Z,25.77
2022-10-18T23:30:13.106Z,26.30
2022-10-18T23:32:39.722Z,37.90
2022-10-18T23:35:06.764Z,32.63
2022-10-18T23:37:33.840Z,28.20
2022-10-18T23:40:00.756Z,30.77
2022-10-18T23:42:27.564Z,28.10
2022-10-18T23:44:54.241Z,33.93
2022-10-18T23:47:20.898Z,35.63
2022-10-18T23:49:47.558Z,38.23
2022-10-18T23:52:14.089Z,24.93
2022-10-18T23:54:40.580Z,28.27
2022-10-18T23:57:07.218Z,32.50
2022-10-18T23:59:33.678Z,33.03
